createdAt,value
2023-04-02T00:00:24.005Z,99.20
2023-04-02T00:03:06.064Z,98.71
2023-04-02T00:06:00.574Z,98.70
2023-04-02T00:08:46.864Z,98.53
2023-04-02T00:11:38.223Z,97.59
2023-04-02T00:14:31.911Z,96.64
2023-04-02T00:17:13.863Z,96.49
2023-04-02T00:19:54.430Z,96.27
2023-04-02T00:22:38.995Z,96.14
2023-04-02T00:25:25.433Z,96.36
2023-04-02T00:28:03.674Z,96.88
2023-04-02T00:30:53.634Z,96.74
2023-04-02T00:33:40.167Z,97.11
2023-04-02T00:36:29.945Z,97.06
2023-04-02T00:39:13.386Z,96.76
2023-04-02T00:42:06.247Z,96.96
2023-04-02T00:45:20.627Z,96.71
2023-04-02T00:48:21.728Z,96.67
2023-04-02T00:51:05.687Z,96.32
2023-04-02T00:53:39.730Z,95.91
2023-04-02T00:56:31.553Z,95.90
2023-04-02T00:59:06.213Z,95.85
2023-04-02T01:01:44.257Z,95.95
2023-04-02T01:04:40.008Z,95.94
2023-04-02T01:07:18.734Z,95.61
2023-04-02T01:10:29.165Z,95.77
2023-04-02T01:13:20.890Z,95.30
2023-04-02T01:16:04.960Z,95.34
2023-04-02T01:18:53.454Z,95.44
2023-04-02T01:22:00.822Z,95.50
2023-04-02T01:24:40.200Z,95.33
2023-04-02T01:27:19.835Z,95.95
2023-04-02T01:30:02.222Z,96.23
2023-04-02T01:32:43.893Z,96.36
2023-04-02T01:35:21.300Z,95.42
2023-04-02T01:38:10.303Z,96.06
2023-04-02T01:41:01.854Z,96.87
2023-04-02T01:43:46.166Z,97.08
2023-04-02T01:46:48.998Z,96.89
2023-04-02T01:49:27.287Z,96.38
2023-04-02T01:52:18.958Z,96.17
2023-04-02T01:54:53.375Z,96.54
2023-04-02T01:57:36.343Z,96.93
2023-04-02T02:00:21.457Z,96.85
2023-04-02T02:03:08.583Z,97.53
2023-04-02T02:05:53.057Z,97.20
2023-04-02T02:08:55.405Z,97.07
2023-04-02T02:11:40.927Z,96.44
2023-04-02T02:14:28.405Z,96.04
2023-04-02T02:17:14.242Z,95.82
2023-04-02T02:20:04.784Z,95.91
2023-04-02T02:22:45.521Z,96.20
2023-04-02T02:25:24.852Z,96.19
2023-04-02T02:28:22.666Z,96.40
2023-04-02T02:31:20.046Z,96.38
2023-04-02T02:34:10.349Z,95.78
2023-04-02T02:36:55.935Z,95.24
2023-04-02T02:39:43.287Z,95.75
2023-04-02T02:42:26.842Z,95.15
2023-04-02T02:45:03.931Z,95.46
2023-04-02T02:47:48.581Z,95.68
2023-04-02T02:50:31.351Z,95.41
2023-04-02T02:53:17.461Z,95.74
2023-04-02T02:56:01.067Z,95.53
2023-04-02T02:58:42.596Z,95.07
2023-04-02T03:01:27.579Z,95.42
2023-04-02T03:04:00.124Z,96.02
2023-04-02T03:06:42.122Z,96.40
2023-04-02T03:09:29.881Z,96.43
2023-04-02T03:12:14.365Z,96.14
2023-04-02T03:15:00.130Z,96.07
2023-04-02T03:17:44.660Z,96.58
2023-04-02T03:20:25.219Z,96.86
2023-04-02T03:23:17.439Z,96.86
2023-04-02T03:26:10.351Z,96.54
2023-04-02T03:28:56.903Z,95.46
2023-04-02T03:31:38.052Z,94.72
2023-04-02T03:34:23.948Z,94.10
2023-04-02T03:37:10.712Z,95.39
2023-04-02T03:40:13.647Z,95.75
2023-04-02T03:43:05.577Z,95.65
2023-04-02T03:45:45.997Z,95.05
2023-04-02T03:48:36.142Z,95.16
2023-04-02T03:51:26.822Z,95.98
2023-04-02T03:54:04.788Z,95.46
2023-04-02T03:56:55.972Z,94.78
2023-04-02T04:00:01.829Z,94.36
2023-04-02T04:02:56.540Z,94.15
2023-04-02T04:05:36.994Z,94.24
2023-04-02T04:08:33.953Z,94.23
2023-04-02T04:11:14.709Z,94.45
2023-04-02T04:13:58.585Z,95.25
2023-04-02T04:16:41.253Z,95.69
2023-04-02T04:19:22.103Z,96.87
2023-04-02T04:22:02.543Z,96.63
2023-04-02T04:24:43.388Z,97.36
2023-04-02T04:27:35.199Z,97.45
2023-04-02T04:30:24.242Z,97.47
2023-04-02T04:33:05.937Z,97.64
2023-04-02T04:35:49.526Z,97.60
2023-04-02T04:38:39.919Z,97.64
2023-04-02T04:41:39.006Z,96.89
2023-04-02T04:44:24.296Z,97.38
2023-04-02T04:47:15.718Z,97.15
2023-04-02T04:50:04.815Z,97.25
2023-04-02T04:52:49.411Z,97.16
2023-04-02T04:55:37.762Z,97.29
2023-04-02T04:58:27.890Z,98.04
2023-04-02T05:01:12.190Z,98.53
2023-04-02T05:04:08.765Z,100.00
2023-04-02T05:07:00.612Z,100.00
2023-04-02T05:09:45.129Z,100.00
2023-04-02T05:12:34.672Z,100.00
2023-04-02T05:15:28.771Z,100.00
2023-04-02T05:18:25.991Z,100.00
2023-04-02T05:21:17.422Z,100.00
2023-04-02T05:24:12.396Z,100.00
2023-04-02T05:27:08.055Z,100.00
2023-04-02T05:30:08.471Z,100.00
2023-04-02T05:32:53.092Z,100.00
2023-04-02T05:35:35.962Z,100.00
2023-04-02T05:38:22.507Z,100.00
2023-04-02T05:41:26.181Z,100.00
2023-04-02T05:44:16.467Z,100.00
2023-04-02T05:47:00.470Z,100.00
2023-04-02T05:49:48.240Z,100.00
2023-04-02T05:52:36.939Z,100.00
2023-04-02T05:55:47.082Z,100.00
2023-04-02T05:58:45.307Z,100.00
2023-04-02T06:02:05.783Z,100.00
2023-04-02T06:04:58.287Z,100.00
2023-04-02T06:07:56.712Z,100.00
2023-04-02T06:10:35.772Z,100.00
2023-04-02T06:13:14.172Z,100.00
2023-04-02T06:15:54.264Z,100.00
2023-04-02T06:18:38.805Z,100.00
2023-04-02T06:21:12.880Z,100.00
2023-04-02T06:23:55.043Z,100.00
2023-04-02T06:26:47.372Z,100.00
2023-04-02T06:29:34.676Z,100.00
2023-04-02T06:32:23.547Z,100.00
2023-04-02T06:35:07.590Z,100.00
2023-04-02T06:37:46.233Z,100.00
2023-04-02T06:40:49.047Z,100.00
2023-04-02T06:43:46.168Z,100.00
2023-04-02T06:46:35.577Z,100.00
2023-04-02T06:49:26.439Z,100.00
2023-04-02T06:52:13.717Z,100.00
2023-04-02T06:55:12.345Z,100.00
2023-04-02T06:57:48.483Z,100.00
2023-04-02T07:00:43.524Z,100.00
2023-04-02T07:03:38.996Z,100.00
2023-04-02T07:06:37.508Z,100.00
2023-04-02T07:09:24.997Z,100.00
2023-04-02T07:12:05.379Z,100.00
2023-04-02T07:14:41.174Z,100.00
2023-04-02T07:17:22.824Z,100.00
2023-04-02T07:20:00.235Z,100.00
2023-04-02T07:22:42.402Z,100.00
2023-04-02T07:25:31.164Z,100.00
2023-04-02T07:28:15.388Z,99.91
2023-04-02T07:31:04.824Z,98.58
2023-04-02T07:33:42.229Z,96.92
2023-04-02T07:36:29.758Z,97.70
2023-04-02T07:39:24.796Z,95.58
2023-04-02T07:41:59.439Z,96.02
2023-04-02T07:44:40.126Z,96.33
2023-04-02T07:47:15.405Z,93.29
2023-04-02T07:49:56.521Z,93.13
2023-04-02T07:52:46.965Z,88.85
2023-04-02T07:55:38.176Z,88.83
2023-04-02T07:58:26.678Z,87.48
2023-04-02T08:01:05.921Z,88.87
2023-04-02T08:03:47.925Z,87.68
2023-04-02T08:06:30.278Z,88.20
2023-04-02T08:09:12.387Z,87.74
2023-04-02T08:11:58.650Z,87.65
2023-04-02T08:14:36.889Z,85.74
2023-04-02T08:17:13.181Z,85.16
2023-04-02T08:19:55.007Z,86.32
2023-04-02T08:23:01.682Z,84.09
2023-04-02T08:25:37.509Z,84.18
2023-04-02T08:28:32.887Z,83.06
2023-04-02T08:31:11.372Z,81.95
2023-04-02T08:33:46.238Z,83.21
2023-04-02T08:36:24.622Z,84.24
2023-04-02T08:39:02.224Z,83.57
2023-04-02T08:41:59.591Z,83.59
2023-04-02T08:45:22.988Z,83.97
2023-04-02T08:48:21.370Z,79.85
2023-04-02T08:51:00.234Z,79.76
2023-04-02T08:53:40.105Z,79.33
2023-04-02T08:56:35.070Z,78.60
2023-04-02T08:59:30.345Z,78.91
2023-04-02T09:02:31.182Z,81.05
2023-04-02T09:05:12.044Z,80.83
2023-04-02T09:07:54.751Z,78.27
2023-04-02T09:10:45.695Z,80.08
2023-04-02T09:13:33.889Z,81.24
2023-04-02T09:16:14.337Z,81.50
2023-04-02T09:19:05.986Z,79.94
2023-04-02T09:21:51.286Z,81.22
2023-04-02T09:24:33.447Z,84.26
2023-04-02T09:27:09.938Z,80.12
2023-04-02T09:29:54.906Z,78.67
2023-04-02T09:32:54.346Z,78.92
2023-04-02T09:35:39.443Z,78.19
2023-04-02T09:38:44.304Z,78.63
2023-04-02T09:41:39.376Z,78.96
2023-04-02T09:44:32.935Z,76.93
2023-04-02T09:47:12.115Z,78.31
2023-04-02T09:49:57.369Z,79.10
2023-04-02T09:52:47.201Z,79.22
2023-04-02T09:55:41.087Z,77.65
2023-04-02T09:58:26.154Z,77.86
2023-04-02T10:01:04.990Z,74.98
2023-04-02T10:03:55.478Z,77.93
2023-04-02T10:06:38.408Z,76.27
2023-04-02T10:09:39.539Z,75.81
2023-04-02T10:12:22.446Z,76.67
2023-04-02T10:15:00.287Z,77.61
2023-04-02T10:17:51.375Z,77.63
2023-04-02T10:20:50.420Z,76.14
2023-04-02T10:23:32.028Z,76.60
2023-04-02T10:26:34.212Z,76.35
2023-04-02T10:29:39.425Z,77.37
2023-04-02T10:32:29.203Z,74.56
2023-04-02T10:35:15.473Z,74.15
2023-04-02T10:38:14.380Z,71.41
2023-04-02T10:40:54.398Z,71.37
2023-04-02T10:44:13.136Z,72.04
2023-04-02T10:47:06.246Z,71.75
2023-04-02T10:49:58.256Z,74.08
2023-04-02T10:52:44.145Z,73.60
2023-04-02T10:55:42.237Z,71.25
2023-04-02T10:58:33.290Z,72.69
2023-04-02T11:01:24.220Z,75.08
2023-04-02T11:04:14.172Z,75.71
2023-04-02T11:07:13.201Z,72.52
2023-04-02T11:09:57.067Z,69.48
2023-04-02T11:12:51.667Z,70.30
2023-04-02T11:15:28.647Z,69.85
2023-04-02T11:18:33.808Z,70.31
2023-04-02T11:21:57.374Z,69.89
2023-04-02T11:24:51.237Z,63.00
2023-04-02T11:27:33.617Z,63.29
2023-04-02T11:30:22.838Z,65.03
2023-04-02T11:33:36.360Z,64.37
2023-04-02T11:37:00.034Z,69.41
2023-04-02T11:39:54.293Z,64.42
2023-04-02T11:42:44.766Z,60.98
2023-04-02T11:46:07.805Z,62.01
2023-04-02T11:48:48.550Z,61.39
2023-04-02T11:52:05.445Z,60.75
2023-04-02T11:54:47.837Z,60.62
2023-04-02T11:57:34.776Z,63.25
2023-04-02T12:00:32.305Z,63.28
2023-04-02T12:03:38.346Z,74.04
2023-04-02T12:06:29.526Z,78.13
2023-04-02T12:09:23.774Z,78.48
2023-04-02T12:12:25.012Z,80.59
2023-04-02T12:15:09.209Z,83.43
2023-04-02T12:17:46.337Z,75.41
2023-04-02T12:20:32.109Z,85.06
2023-04-02T12:23:43.591Z,82.75
2023-04-02T12:26:47.842Z,85.74
2023-04-02T12:29:34.882Z,85.63
2023-04-02T12:32:29.567Z,89.17
2023-04-02T12:35:15.044Z,83.34
2023-04-02T12:37:57.531Z,87.58
2023-04-02T12:40:45.218Z,90.76
2023-04-02T12:43:34.695Z,88.56
2023-04-02T12:46:21.437Z,88.95
2023-04-02T12:49:18.330Z,89.64
2023-04-02T12:55:06.770Z,91.84
2023-04-02T12:57:54.776Z,92.55
2023-04-02T13:00:42.129Z,95.07
2023-04-02T13:03:31.739Z,95.60
2023-04-02T13:06:23.676Z,93.70
2023-04-02T13:09:06.005Z,92.61
2023-04-02T13:11:59.650Z,92.72
2023-04-02T13:14:43.329Z,92.73
2023-04-02T13:17:47.205Z,91.17
2023-04-02T13:20:40.302Z,94.26
2023-04-02T13:23:54.382Z,92.08
2023-04-02T13:26:36.516Z,91.67
2023-04-02T13:29:24.850Z,90.84
2023-04-02T13:32:06.054Z,88.13
2023-04-02T13:34:46.942Z,83.32
2023-04-02T13:37:24.964Z,86.69
2023-04-02T13:40:05.456Z,71.70
2023-04-02T13:42:46.225Z,74.11
2023-04-02T13:45:34.480Z,79.88
2023-04-02T13:48:31.987Z,72.59
2023-04-02T13:51:24.259Z,70.43
2023-04-02T13:54:09.682Z,66.35
2023-04-02T13:56:48.139Z,76.08
2023-04-02T13:59:24.742Z,71.12
2023-04-02T14:02:09.246Z,75.54
2023-04-02T14:04:55.249Z,73.74
2023-04-02T14:07:47.948Z,67.53
2023-04-02T14:10:38.958Z,71.66
2023-04-02T14:16:46.836Z,72.13
2023-04-02T14:19:39.551Z,67.58
2023-04-02T14:22:41.242Z,72.33
2023-04-02T14:25:32.950Z,69.97
2023-04-02T14:28:25.558Z,73.74
2023-04-02T14:31:11.759Z,60.30
2023-04-02T14:33:58.800Z,59.54
2023-04-02T14:36:40.139Z,64.36
2023-04-02T14:39:32.833Z,68.02
2023-04-02T14:42:20.146Z,57.30
2023-04-02T14:45:02.301Z,58.10
2023-04-02T14:47:41.796Z,60.88
2023-04-02T14:50:38.330Z,62.04
2023-04-02T14:53:27.454Z,63.69
2023-04-02T14:56:12.955Z,63.89
2023-04-02T14:59:01.921Z,63.55
2023-04-02T15:01:45.386Z,65.58
2023-04-02T15:04:29.445Z,65.05
2023-04-02T15:07:13.503Z,64.35
2023-04-02T15:10:09.867Z,68.97
2023-04-02T15:12:59.936Z,66.32
2023-04-02T15:18:43.901Z,69.80
2023-04-02T15:21:55.830Z,69.01
2023-04-02T15:24:57.190Z,65.68
2023-04-02T15:28:14.829Z,65.30
2023-04-02T15:31:04.610Z,65.29
2023-04-02T15:33:59.037Z,66.86
2023-04-02T15:36:48.270Z,67.70
2023-04-02T15:39:41.278Z,67.69
2023-04-02T15:42:35.257Z,70.08
2023-04-02T15:45:45.327Z,69.73
2023-04-02T15:48:43.333Z,71.27
2023-04-02T15:51:35.291Z,70.90
2023-04-02T15:54:24.976Z,72.41
2023-04-02T15:57:15.051Z,73.32
2023-04-02T16:00:28.774Z,75.39
2023-04-02T16:03:38.122Z,75.90
2023-04-02T16:06:34.928Z,75.71
2023-04-02T16:09:22.475Z,72.10
2023-04-02T16:12:08.505Z,73.38
2023-04-02T16:14:49.559Z,73.69
2023-04-02T16:17:32.281Z,71.45
2023-04-02T16:20:26.427Z,72.08
2023-04-02T16:23:16.846Z,71.46
2023-04-02T16:26:00.234Z,70.18
2023-04-02T16:28:46.486Z,69.74
2023-04-02T16:31:32.521Z,68.32
2023-04-02T16:34:29.285Z,68.54
2023-04-02T16:37:18.530Z,69.29
2023-04-02T16:40:19.067Z,70.37
2023-04-02T16:42:59.879Z,70.71
2023-04-02T16:45:40.561Z,72.21
2023-04-02T16:48:34.026Z,71.10
2023-04-02T16:51:28.674Z,70.77
2023-04-02T16:54:15.582Z,71.66
2023-04-02T16:56:58.837Z,71.68
2023-04-02T16:59:44.687Z,71.29
2023-04-02T17:02:50.023Z,71.49
2023-04-02T17:05:49.696Z,72.34
2023-04-02T17:08:37.244Z,72.78
2023-04-02T17:11:31.755Z,73.91
2023-04-02T17:14:18.213Z,73.50
2023-04-02T17:17:00.128Z,73.96
2023-04-02T17:19:39.253Z,74.70
2023-04-02T17:22:21.505Z,74.67
2023-04-02T17:25:04.697Z,75.38
2023-04-02T17:27:50.287Z,76.00
2023-04-02T17:30:48.779Z,76.57
2023-04-02T17:33:29.159Z,76.74
2023-04-02T17:36:33.827Z,77.30
2023-04-02T17:39:25.917Z,77.71
2023-04-02T17:42:19.593Z,78.31
2023-04-02T17:45:21.433Z,79.40
2023-04-02T17:48:07.327Z,79.84
2023-04-02T17:50:57.030Z,80.14
2023-04-02T17:53:58.530Z,80.59
2023-04-02T17:56:52.998Z,80.71
2023-04-02T17:59:52.889Z,80.66
2023-04-02T18:02:51.733Z,81.25
2023-04-02T18:05:51.435Z,81.45
2023-04-02T18:08:34.158Z,81.74
2023-04-02T18:11:18.373Z,82.03
2023-04-02T18:14:03.192Z,81.88
2023-04-02T18:16:52.799Z,81.02
2023-04-02T18:19:45.573Z,81.51
2023-04-02T18:22:29.476Z,81.77
2023-04-02T18:25:32.224Z,81.73
2023-04-02T18:28:20.424Z,80.72
2023-04-02T18:31:19.566Z,80.78
2023-04-02T18:34:45.763Z,81.50
2023-04-02T18:37:47.318Z,81.29
2023-04-02T18:40:43.949Z,81.61
2023-04-02T18:43:36.428Z,82.20
2023-04-02T18:46:27.266Z,82.50
2023-04-02T18:49:09.633Z,82.15
2023-04-02T18:52:05.881Z,83.20
2023-04-02T18:54:48.143Z,83.25
2023-04-02T18:57:37.737Z,83.13
2023-04-02T19:00:33.190Z,83.25
2023-04-02T19:03:20.258Z,83.18
2023-04-02T19:06:07.405Z,83.68
2023-04-02T19:08:48.888Z,83.80
2023-04-02T19:11:32.330Z,84.25
2023-04-02T19:14:14.978Z,84.06
2023-04-02T19:17:17.121Z,85.21
2023-04-02T19:20:11.483Z,85.15
2023-04-02T19:22:58.953Z,85.16
2023-04-02T19:25:58.584Z,85.85
2023-04-02T19:29:03.375Z,85.05
2023-04-02T19:31:59.584Z,85.69
2023-04-02T19:34:42.391Z,86.92
2023-04-02T19:37:22.300Z,87.32
2023-04-02T19:40:19.377Z,88.48
2023-04-02T19:43:04.175Z,89.55
2023-04-02T19:45:49.819Z,89.78
2023-04-02T19:48:35.859Z,90.08
2023-04-02T19:51:21.070Z,90.05
2023-04-02T19:53:58.457Z,90.03
2023-04-02T19:56:42.166Z,89.56
2023-04-02T19:59:18.759Z,90.06
2023-04-02T20:02:12.723Z,90.25
2023-04-02T20:04:57.154Z,89.39
2023-04-02T20:07:42.690Z,89.34
2023-04-02T20:10:30.500Z,89.24
2023-04-02T20:13:24.564Z,89.10
2023-04-02T20:15:58.126Z,88.39
2023-04-02T20:18:41.935Z,88.11
2023-04-02T20:21:17.412Z,87.92
2023-04-02T20:23:54.414Z,87.49
2023-04-02T20:26:33.070Z,86.81
2023-04-02T20:29:09.979Z,86.00
2023-04-02T20:32:13.402Z,85.79
2023-04-02T20:35:04.981Z,84.76
2023-04-02T20:37:42.484Z,84.39
2023-04-02T20:40:19.583Z,84.15
2023-04-02T20:42:57.184Z,83.90
2023-04-02T20:45:34.747Z,84.01
2023-04-02T20:48:14.390Z,83.90
2023-04-02T20:50:58.857Z,83.99
2023-04-02T20:53:39.561Z,83.80
2023-04-02T20:56:25.825Z,83.22
2023-04-02T20:59:19.819Z,83.81
2023-04-02T21:01:53.791Z,83.88
2023-04-02T21:04:32.910Z,83.97
2023-04-02T21:07:23.712Z,84.21
2023-04-02T21:10:09.024Z,84.34
2023-04-02T21:12:56.738Z,84.51
2023-04-02T21:15:42.929Z,84.41
2023-04-02T21:18:23.454Z,84.74
2023-04-02T21:21:16.322Z,85.17
2023-04-02T21:23:58.068Z,85.48
2023-04-02T21:26:34.215Z,85.59
2023-04-02T21:29:13.419Z,85.35
2023-04-02T21:31:49.799Z,85.45
2023-04-02T21:34:24.578Z,85.77
2023-04-02T21:37:08.616Z,86.24
2023-04-02T21:40:02.524Z,86.27
2023-04-02T21:42:54.250Z,86.89
2023-04-02T21:45:31.055Z,87.95
2023-04-02T21:48:12.754Z,88.30
2023-04-02T21:50:54.091Z,88.76
2023-04-02T21:53:29.835Z,89.46
2023-04-02T21:56:13.156Z,89.41
2023-04-02T21:59:00.185Z,89.50
2023-04-02T22:01:46.741Z,88.93
2023-04-02T22:04:27.829Z,89.53
2023-04-02T22:07:07.697Z,89.70
2023-04-02T22:09:48.840Z,89.88
2023-04-02T22:12:29.992Z,90.30
2023-04-02T22:15:06.677Z,90.88
2023-04-02T22:17:59.425Z,90.62
2023-04-02T22:20:40.880Z,90.97
2023-04-02T22:23:30.275Z,90.98
2023-04-02T22:26:10.007Z,91.61
2023-04-02T22:28:56.727Z,92.00
2023-04-02T22:31:35.763Z,91.76
2023-04-02T22:34:23.225Z,92.25
2023-04-02T22:37:01.747Z,92.62
2023-04-02T22:39:50.354Z,92.29
2023-04-02T22:42:36.311Z,93.50
2023-04-02T22:45:26.181Z,93.83
2023-04-02T22:48:16.576Z,93.92
2023-04-02T22:51:01.658Z,94.69
2023-04-02T22:53:48.103Z,94.77
2023-04-02T22:56:23.336Z,94.81
2023-04-02T22:59:06.443Z,94.91
2023-04-02T23:01:46.552Z,95.81
2023-04-02T23:04:32.912Z,96.34
2023-04-02T23:07:20.940Z,96.45
2023-04-02T23:09:58.290Z,97.05
2023-04-02T23:12:33.393Z,98.23
2023-04-02T23:15:17.417Z,99.02
2023-04-02T23:18:11.719Z,99.66
2023-04-02T23:20:54.077Z,100.00
2023-04-02T23:23:33.341Z,100.00
2023-04-02T23:26:25.616Z,100.00
2023-04-02T23:29:10.223Z,100.00
2023-04-02T23:31:49.056Z,100.00
2023-04-02T23:34:36.068Z,100.00
2023-04-02T23:37:25.521Z,100.00
2023-04-02T23:40:05.495Z,100.00
2023-04-02T23:42:37.467Z,100.00
2023-04-02T23:45:20.419Z,100.00
2023-04-02T23:47:54.608Z,100.00
2023-04-02T23:50:44.610Z,100.00
2023-04-02T23:53:37.938Z,100.00
2023-04-02T23:56:27.679Z,100.00
2023-04-02T23:59:13.528Z,100.00
